createdAt,value
2023-01-10T00:00:44.132Z,14.57
2023-01-10T00:03:46.530Z,14.37
2023-01-10T00:06:48.888Z,14.60
2023-01-10T00:09:51.215Z,15.27
2023-01-10T00:13:12.597Z,12.77
2023-01-10T00:16:14.718Z,15.48
2023-01-10T00:19:17.085Z,16.13
2023-01-10T00:22:23.459Z,14.90
2023-01-10T00:25:25.487Z,15.90
2023-01-10T00:28:27.509Z,15.82
2023-01-10T00:31:30.092Z,18.90
2023-01-10T00:34:33.313Z,14.40
2023-01-10T00:37:35.784Z,15.77
2023-01-10T00:40:37.862Z,17.67
2023-01-10T00:43:58.578Z,14.80
2023-01-10T00:47:00.692Z,12.33
2023-01-10T00:50:04.627Z,13.45
2023-01-10T00:53:07.058Z,14.23
2023-01-10T00:56:09.476Z,12.13
2023-01-10T00:59:11.823Z,11.93
2023-01-10T01:02:14.368Z,10.73
2023-01-10T01:05:16.825Z,12.07
2023-01-10T01:08:18.856Z,14.23
2023-01-10T01:11:20.808Z,11.93
2023-01-10T01:14:23.663Z,14.57
2023-01-10T01:17:25.608Z,14.68
2023-01-10T01:20:27.680Z,14.67
2023-01-10T01:23:30.215Z,13.10
2023-01-10T01:26:32.339Z,15.15
2023-01-10T01:29:43.123Z,16.42
2023-01-10T01:32:45.665Z,16.95
2023-01-10T01:35:48.419Z,16.73
2023-01-10T01:38:50.310Z,16.67
2023-01-10T01:41:58.172Z,12.13
2023-01-10T01:45:12.969Z,13.57
2023-01-10T01:48:18.826Z,13.80
2023-01-10T01:51:21.175Z,13.18
2023-01-10T01:54:23.279Z,17.13
2023-01-10T01:57:26.305Z,15.13
2023-01-10T02:00:28.269Z,14.40
2023-01-10T02:03:30.431Z,12.30
2023-01-10T02:06:32.810Z,14.90
2023-01-10T02:09:39.929Z,14.27
2023-01-10T02:12:41.990Z,13.48
2023-01-10T02:15:43.985Z,12.95
2023-01-10T02:18:46.489Z,14.50
2023-01-10T02:21:52.591Z,13.88
2023-01-10T02:25:00.713Z,13.80
2023-01-10T02:28:06.155Z,13.20
2023-01-10T02:31:32.008Z,12.65
2023-01-10T02:34:46.979Z,11.77
2023-01-10T02:37:53.975Z,12.55
2023-01-10T02:41:01.434Z,11.60
2023-01-10T02:44:04.870Z,15.80
2023-01-10T02:47:07.482Z,14.07
2023-01-10T02:50:28.228Z,13.45
2023-01-10T02:53:30.324Z,12.45
2023-01-10T02:56:38.083Z,12.05
2023-01-10T03:00:15.702Z,14.80
2023-01-10T03:03:34.091Z,14.35
2023-01-10T03:06:56.875Z,11.80
2023-01-10T03:10:04.041Z,14.67
2023-01-10T03:13:11.660Z,14.07
2023-01-10T03:16:15.207Z,16.20
2023-01-10T03:19:18.043Z,15.03
2023-01-10T03:22:20.421Z,14.82
2023-01-10T03:25:23.580Z,13.70
2023-01-10T03:28:32.781Z,14.82
2023-01-10T03:31:42.798Z,14.35
2023-01-10T03:34:45.392Z,16.13
2023-01-10T03:37:55.598Z,15.38
2023-01-10T03:41:03.305Z,16.50
2023-01-10T03:44:26.467Z,17.15
2023-01-10T03:47:29.902Z,14.77
2023-01-10T03:50:32.308Z,16.73
2023-01-10T03:53:34.464Z,16.02
2023-01-10T03:56:52.116Z,17.65
2023-01-10T03:59:55.279Z,14.95
2023-01-10T04:02:59.097Z,28.60
2023-01-10T04:06:01.106Z,37.33
2023-01-10T04:09:03.250Z,35.55
2023-01-10T04:12:05.348Z,34.63
2023-01-10T04:15:07.766Z,28.27
2023-01-10T04:18:10.372Z,27.60
2023-01-10T04:21:12.773Z,29.20
2023-01-10T04:24:14.837Z,28.60
2023-01-10T04:27:17.265Z,29.63
2023-01-10T04:30:19.533Z,24.70
2023-01-10T04:33:21.494Z,24.00
2023-01-10T04:36:23.921Z,20.88
2023-01-10T04:39:25.903Z,22.08
2023-01-10T04:42:27.994Z,21.88
2023-01-10T04:45:30.425Z,16.02
2023-01-10T04:48:32.548Z,20.10
2023-01-10T04:51:34.551Z,17.50
2023-01-10T04:54:36.859Z,17.83
2023-01-10T04:57:38.793Z,17.52
2023-01-10T05:00:40.920Z,18.02
2023-01-10T05:03:42.905Z,17.08
2023-01-10T05:06:44.937Z,17.33
2023-01-10T05:09:46.905Z,17.65
2023-01-10T05:12:48.900Z,15.95
2023-01-10T05:15:53.605Z,16.67
2023-01-10T05:18:56.280Z,19.00
2023-01-10T05:21:58.755Z,18.88
2023-01-10T05:25:00.885Z,19.42
2023-01-10T05:28:03.243Z,21.10
2023-01-10T05:31:06.455Z,24.65
2023-01-10T05:34:10.549Z,24.60
2023-01-10T05:37:13.230Z,21.58
2023-01-10T05:40:16.042Z,21.67
2023-01-10T05:43:18.376Z,26.17
2023-01-10T05:46:20.392Z,22.58
2023-01-10T05:49:23.256Z,22.55
2023-01-10T05:52:25.560Z,16.10
2023-01-10T05:55:28.584Z,16.23
2023-01-10T05:58:30.789Z,18.25
2023-01-10T06:01:33.396Z,22.43
2023-01-10T06:04:35.558Z,32.38
2023-01-10T06:07:37.545Z,32.50
2023-01-10T06:10:42.093Z,33.25
2023-01-10T06:13:44.654Z,27.17
2023-01-10T06:16:47.029Z,23.40
2023-01-10T06:19:49.294Z,18.20
2023-01-10T06:22:51.268Z,16.63
2023-01-10T06:25:53.463Z,16.48
2023-01-10T06:28:55.940Z,12.50
2023-01-10T06:31:58.508Z,15.05
2023-01-10T06:35:01.069Z,14.75
2023-01-10T06:38:03.065Z,16.02
2023-01-10T06:41:13.137Z,16.10
2023-01-10T06:44:15.764Z,17.70
2023-01-10T06:47:18.194Z,17.02
2023-01-10T06:50:20.453Z,15.75
2023-01-10T06:53:22.992Z,13.07
2023-01-10T06:56:24.986Z,11.98
2023-01-10T06:59:27.349Z,10.80
2023-01-10T07:02:29.462Z,8.95
2023-01-10T07:05:33.377Z,10.10
2023-01-10T07:08:35.789Z,11.95
2023-01-10T07:11:37.796Z,9.57
2023-01-10T07:14:41.277Z,9.80
2023-01-10T07:17:43.369Z,9.75
2023-01-10T07:20:45.862Z,8.32
2023-01-10T07:23:49.971Z,9.93
2023-01-10T07:26:54.662Z,6.93
2023-01-10T07:29:57.060Z,7.38
2023-01-10T07:33:01.447Z,6.38
2023-01-10T07:36:04.183Z,8.00
2023-01-10T07:39:06.359Z,7.53
2023-01-10T07:42:09.388Z,7.53
2023-01-10T07:45:13.603Z,6.30
2023-01-10T07:48:15.998Z,6.93
2023-01-10T07:51:18.540Z,7.13
2023-01-10T07:54:20.758Z,7.97
2023-01-10T07:57:23.342Z,7.17
2023-01-10T08:00:26.007Z,7.07
2023-01-10T08:03:28.347Z,6.15
2023-01-10T08:06:30.621Z,6.40
2023-01-10T08:09:33.058Z,6.47
2023-01-10T08:12:35.594Z,7.88
2023-01-10T08:15:37.614Z,8.65
2023-01-10T08:18:42.603Z,8.95
2023-01-10T08:21:44.951Z,8.32
2023-01-10T08:24:47.095Z,6.25
2023-01-10T08:27:49.208Z,4.65
2023-01-10T08:30:55.613Z,4.07
2023-01-10T08:34:04.776Z,7.60
2023-01-10T08:37:07.201Z,5.45
2023-01-10T08:40:20.808Z,5.13
2023-01-10T08:43:28.586Z,3.25
2023-01-10T08:46:37.136Z,4.40
2023-01-10T08:49:39.580Z,3.72
2023-01-10T08:52:41.986Z,4.37
2023-01-10T08:55:43.973Z,2.63
2023-01-10T08:58:45.960Z,2.38
2023-01-10T09:01:47.970Z,3.87
2023-01-10T09:04:50.524Z,2.22
2023-01-10T09:07:52.900Z,1.85
2023-01-10T09:10:55.114Z,3.28
2023-01-10T09:13:57.585Z,2.35
2023-01-10T09:17:00.079Z,2.80
2023-01-10T09:20:12.557Z,2.50
2023-01-10T09:23:20.166Z,2.57
2023-01-10T09:26:22.177Z,2.53
2023-01-10T09:29:24.591Z,2.17
2023-01-10T09:32:26.603Z,1.57
2023-01-10T09:35:29.566Z,3.03
2023-01-10T09:38:31.623Z,2.53
2023-01-10T09:41:39.619Z,2.78
2023-01-10T09:45:00.241Z,1.98
2023-01-10T09:48:12.037Z,2.47
2023-01-10T09:51:35.650Z,2.15
2023-01-10T09:54:39.638Z,1.83
2023-01-10T09:57:45.114Z,2.35
2023-01-10T10:00:50.739Z,2.15
2023-01-10T10:04:05.810Z,1.70
2023-01-10T10:07:14.369Z,3.15
2023-01-10T10:10:30.016Z,1.25
2023-01-10T10:13:41.888Z,1.17
2023-01-10T10:16:44.651Z,0.88
2023-01-10T10:20:05.310Z,1.27
2023-01-10T10:23:12.953Z,1.83
2023-01-10T10:26:17.787Z,1.60
2023-01-10T10:29:22.787Z,1.95
2023-01-10T10:32:24.732Z,1.25
2023-01-10T10:35:32.165Z,1.87
2023-01-10T10:38:35.165Z,1.40
2023-01-10T10:41:41.164Z,2.33
2023-01-10T10:44:49.209Z,1.90
2023-01-10T10:48:00.639Z,1.20
2023-01-10T10:51:04.270Z,1.80
2023-01-10T10:54:07.513Z,1.20
2023-01-10T10:57:10.613Z,1.33
2023-01-10T11:00:17.653Z,1.60
2023-01-10T11:03:27.656Z,2.10
2023-01-10T11:06:32.656Z,1.47
2023-01-10T11:09:59.892Z,1.70
2023-01-10T11:13:02.707Z,2.50
2023-01-10T11:16:05.514Z,2.47
2023-01-10T11:19:10.701Z,1.70
2023-01-10T11:22:13.701Z,1.45
2023-01-10T11:25:16.101Z,1.60
2023-01-10T11:28:18.597Z,1.73
2023-01-10T11:31:27.882Z,3.95
2023-01-10T11:34:30.963Z,2.47
2023-01-10T11:37:33.676Z,1.67
2023-01-10T11:40:39.050Z,3.15
2023-01-10T11:43:41.205Z,2.42
2023-01-10T11:46:44.407Z,2.92
2023-01-10T11:49:46.639Z,2.33
2023-01-10T11:52:48.833Z,2.30
2023-01-10T11:55:51.200Z,2.20
2023-01-10T11:58:53.384Z,2.93
2023-01-10T12:01:58.821Z,2.20
2023-01-10T12:05:02.422Z,2.75
2023-01-10T12:08:06.748Z,3.17
2023-01-10T12:11:18.036Z,1.75
2023-01-10T12:14:20.599Z,3.30
2023-01-10T12:17:23.766Z,3.45
2023-01-10T12:20:26.465Z,3.90
2023-01-10T12:23:28.879Z,2.03
2023-01-10T12:26:32.393Z,2.95
2023-01-10T12:29:39.601Z,3.00
2023-01-10T12:32:47.150Z,2.88
2023-01-10T12:35:50.757Z,2.55
2023-01-10T12:39:04.521Z,2.30
2023-01-10T12:42:25.694Z,4.55
2023-01-10T12:45:28.295Z,2.80
2023-01-10T12:48:34.092Z,4.28
2023-01-10T12:51:36.556Z,3.28
2023-01-10T12:54:38.830Z,2.53
2023-01-10T12:57:42.331Z,3.80
2023-01-10T13:00:48.492Z,3.13
2023-01-10T13:03:53.883Z,2.03
2023-01-10T13:07:04.754Z,4.38
2023-01-10T13:10:07.203Z,3.37
2023-01-10T13:13:21.504Z,3.10
2023-01-10T13:16:23.845Z,2.70
2023-01-10T13:19:26.942Z,2.83
2023-01-10T13:22:36.639Z,2.88
2023-01-10T13:25:39.763Z,2.80
2023-01-10T13:28:51.397Z,2.55
2023-01-10T13:32:00.499Z,3.30
2023-01-10T13:35:18.221Z,4.22
2023-01-10T13:38:24.737Z,4.28
2023-01-10T13:42:05.888Z,3.60
2023-01-10T13:45:13.554Z,3.40
2023-01-10T13:48:26.516Z,3.47
2023-01-10T13:51:31.917Z,4.60
2023-01-10T13:54:34.306Z,3.88
2023-01-10T13:57:49.537Z,3.20
2023-01-10T14:01:11.363Z,4.10
2023-01-10T14:04:19.621Z,3.80
2023-01-10T14:07:23.273Z,3.00
2023-01-10T14:10:26.403Z,3.20
2023-01-10T14:13:28.431Z,3.80
2023-01-10T14:16:34.821Z,5.10
2023-01-10T14:19:37.239Z,7.15
2023-01-10T14:22:39.581Z,6.13
2023-01-10T14:25:42.605Z,6.13
2023-01-10T14:28:52.309Z,6.15
2023-01-10T14:31:56.571Z,3.90
2023-01-10T14:35:01.333Z,3.40
2023-01-10T14:38:03.555Z,4.78
2023-01-10T14:41:23.132Z,2.28
2023-01-10T14:44:45.838Z,2.13
2023-01-10T14:47:49.682Z,3.30
2023-01-10T14:50:51.751Z,2.85
2023-01-10T14:53:56.022Z,3.08
2023-01-10T14:56:58.187Z,3.08
2023-01-10T15:00:05.123Z,8.15
2023-01-10T15:03:09.316Z,12.75
2023-01-10T15:06:11.784Z,23.23
2023-01-10T15:09:13.892Z,12.00
2023-01-10T15:12:16.184Z,13.57
2023-01-10T15:15:19.415Z,15.90
2023-01-10T15:18:24.241Z,18.52
2023-01-10T15:21:26.735Z,17.30
2023-01-10T15:24:35.949Z,11.45
2023-01-10T15:27:40.290Z,13.07
2023-01-10T15:30:42.532Z,8.27
2023-01-10T15:33:56.308Z,8.10
2023-01-10T15:36:59.668Z,11.07
2023-01-10T15:40:02.142Z,12.40
2023-01-10T15:43:21.252Z,12.82
2023-01-10T15:46:26.916Z,7.50
2023-01-10T15:49:30.712Z,6.05
2023-01-10T15:52:35.594Z,8.10
2023-01-10T15:55:44.358Z,8.88
2023-01-10T15:58:46.561Z,7.80
2023-01-10T16:01:55.245Z,12.50
2023-01-10T16:05:07.687Z,10.02
2023-01-10T16:08:09.673Z,9.60
2023-01-10T16:11:37.784Z,13.27
2023-01-10T16:14:39.837Z,7.50
2023-01-10T16:17:41.913Z,6.60
2023-01-10T16:20:45.909Z,5.45
2023-01-10T16:23:49.009Z,6.55
2023-01-10T16:26:51.823Z,6.00
2023-01-10T16:29:54.053Z,6.03
2023-01-10T16:32:58.873Z,7.55
2023-01-10T16:36:00.992Z,13.88
2023-01-10T16:39:07.726Z,7.47
2023-01-10T16:42:28.872Z,7.80
2023-01-10T16:45:31.337Z,4.80
2023-01-10T16:48:33.691Z,5.93
2023-01-10T16:51:38.364Z,7.60
2023-01-10T16:54:40.573Z,6.65
2023-01-10T16:57:46.746Z,6.28
2023-01-10T17:00:49.718Z,6.53
2023-01-10T17:03:51.881Z,7.20
2023-01-10T17:06:54.535Z,9.90
2023-01-10T17:09:58.364Z,9.60
2023-01-10T17:13:09.605Z,17.35
2023-01-10T17:16:11.970Z,16.80
2023-01-10T17:19:14.118Z,24.47
2023-01-10T17:22:16.518Z,17.10
2023-01-10T17:25:19.142Z,8.00
2023-01-10T17:28:21.238Z,8.27
2023-01-10T17:31:23.353Z,7.90
2023-01-10T17:34:26.032Z,7.32
2023-01-10T17:37:28.396Z,5.85
2023-01-10T17:40:30.447Z,7.97
2023-01-10T17:43:32.427Z,6.15
2023-01-10T17:46:34.544Z,5.97
2023-01-10T17:49:36.693Z,8.13
2023-01-10T17:52:39.134Z,8.68
2023-01-10T17:55:47.900Z,8.95
2023-01-10T17:58:51.730Z,10.07
2023-01-10T18:01:54.340Z,9.90
2023-01-10T18:04:56.786Z,9.57
2023-01-10T18:08:01.134Z,7.63
2023-01-10T18:11:03.466Z,12.63
2023-01-10T18:14:24.461Z,10.25
2023-01-10T18:17:26.435Z,10.70
2023-01-10T18:20:28.955Z,10.57
2023-01-10T18:23:31.870Z,10.73
2023-01-10T18:26:34.300Z,10.00
2023-01-10T18:29:36.325Z,5.25
2023-01-10T18:32:38.736Z,5.50
2023-01-10T18:35:40.830Z,3.60
2023-01-10T18:38:42.812Z,4.10
2023-01-10T18:41:45.263Z,3.28
2023-01-10T18:44:50.226Z,3.80
2023-01-10T18:47:55.469Z,5.35
2023-01-10T18:51:00.618Z,4.72
2023-01-10T18:54:02.659Z,3.33
2023-01-10T18:57:04.704Z,5.35
2023-01-10T19:00:09.621Z,5.18
2023-01-10T19:03:12.000Z,4.55
2023-01-10T19:06:16.386Z,6.90
2023-01-10T19:09:19.519Z,5.53
2023-01-10T19:12:22.025Z,6.70
2023-01-10T19:15:24.448Z,7.57
2023-01-10T19:18:26.466Z,8.00
2023-01-10T19:21:30.363Z,6.55
2023-01-10T19:24:37.551Z,4.25
2023-01-10T19:27:40.090Z,4.75
2023-01-10T19:30:43.230Z,4.85
2023-01-10T19:33:46.276Z,5.95
2023-01-10T19:36:48.273Z,5.37
2023-01-10T19:39:50.601Z,5.35
2023-01-10T19:42:52.617Z,8.93
2023-01-10T19:45:55.211Z,6.40
2023-01-10T19:48:58.001Z,5.13
2023-01-10T19:52:00.364Z,5.82
2023-01-10T19:55:02.606Z,8.38
2023-01-10T19:58:04.671Z,6.83
2023-01-10T20:01:10.233Z,6.47
2023-01-10T20:04:13.819Z,4.57
2023-01-10T20:07:17.921Z,5.73
2023-01-10T20:10:20.931Z,4.38
2023-01-10T20:13:23.295Z,3.80
2023-01-10T20:16:26.561Z,4.68
2023-01-10T20:19:28.449Z,4.80
2023-01-10T20:22:30.843Z,5.43
2023-01-10T20:25:32.772Z,4.57
2023-01-10T20:28:34.774Z,3.27
2023-01-10T20:31:37.238Z,3.30
2023-01-10T20:34:39.356Z,5.30
2023-01-10T20:37:41.323Z,3.77
2023-01-10T20:40:43.347Z,4.70
2023-01-10T20:43:45.377Z,4.72
2023-01-10T20:46:47.393Z,3.78
2023-01-10T20:49:49.381Z,3.80
2023-01-10T20:52:51.396Z,4.50
2023-01-10T20:55:59.786Z,4.43
2023-01-10T20:59:02.921Z,4.27
2023-01-10T21:02:05.117Z,3.58
2023-01-10T21:05:07.693Z,5.43
2023-01-10T21:08:09.651Z,5.33
2023-01-10T21:11:12.043Z,3.63
2023-01-10T21:14:14.070Z,3.67
2023-01-10T21:17:16.343Z,3.53
2023-01-10T21:20:18.542Z,5.05
2023-01-10T21:23:21.286Z,3.80
2023-01-10T21:26:23.788Z,4.72
2023-01-10T21:29:25.808Z,4.93
2023-01-10T21:32:28.568Z,5.90
2023-01-10T21:35:30.567Z,4.90
2023-01-10T21:38:33.041Z,3.80
2023-01-10T21:41:53.566Z,5.03
2023-01-10T21:44:55.926Z,4.00
2023-01-10T21:47:59.288Z,6.30
2023-01-10T21:51:01.296Z,6.10
2023-01-10T21:54:03.521Z,5.05
2023-01-10T21:57:05.455Z,4.88
2023-01-10T22:00:08.258Z,4.53
2023-01-10T22:03:16.511Z,5.63
2023-01-10T22:06:18.920Z,5.53
2023-01-10T22:09:20.813Z,5.07
2023-01-10T22:12:23.535Z,5.03
2023-01-10T22:15:27.084Z,6.63
2023-01-10T22:18:30.154Z,5.60
2023-01-10T22:21:32.248Z,7.25
2023-01-10T22:24:34.371Z,5.07
2023-01-10T22:27:36.763Z,5.90
2023-01-10T22:30:39.202Z,5.07
2023-01-10T22:33:42.863Z,6.03
2023-01-10T22:36:44.927Z,6.00
2023-01-10T22:39:48.580Z,5.53
2023-01-10T22:42:54.631Z,6.10
2023-01-10T22:45:56.685Z,7.35
2023-01-10T22:48:59.589Z,6.43
2023-01-10T22:52:01.920Z,7.50
2023-01-10T22:55:04.062Z,7.72
2023-01-10T22:58:06.015Z,6.10
2023-01-10T23:01:08.036Z,7.63
2023-01-10T23:04:10.219Z,5.95
2023-01-10T23:07:12.986Z,5.93
2023-01-10T23:10:29.139Z,8.67
2023-01-10T23:13:33.119Z,8.35
2023-01-10T23:16:35.024Z,7.22
2023-01-10T23:19:37.011Z,9.02
2023-01-10T23:22:39.271Z,9.10
2023-01-10T23:25:41.230Z,10.65
2023-01-10T23:28:46.677Z,7.85
2023-01-10T23:31:51.723Z,11.73
2023-01-10T23:34:53.624Z,8.07
2023-01-10T23:37:55.554Z,8.13
2023-01-10T23:40:57.475Z,8.37
2023-01-10T23:43:59.914Z,7.25
2023-01-10T23:47:01.805Z,8.65
2023-01-10T23:50:04.253Z,8.20
2023-01-10T23:53:06.272Z,6.88
2023-01-10T23:56:12.836Z,8.13
2023-01-10T23:59:14.728Z,6.50
